• Join FlightAware (Why Join?)
  • Login
  • US Flag 
06:30PM EDT


 

Airport Tracker/Info


-or-


 

Live Flight TrackerFlight Track Log ✈ FIN666 ✈ 21-Apr-2014 ✈ EKCH / CPH - EFHK / HEL

Flight Track Log - Related Links

Times and Time Zones

All times are in EDT time to prevent confusion due to time zone crossing. See the FIN666 flight status page for this flight to view local times or setup timezone preferences in your user account.

Time Position Orientation Groundspeed Altitude Reporting Facility
EDT Latitude Longitude Course Direction KTS MPH feet Rate Location/Type
07:25AM 55.8272 13.0881 49° Northeast  Level Estimated
07:26AM 55.8966 13.2332 49° Northeast  Level Estimated
07:27AM 55.9658 13.3788 50° Northeast  Level Estimated
07:28AM 56.0349 13.5249 50° Northeast  Level Estimated
07:29AM 56.1087 13.6820 50° Northeast  Level Estimated
07:30AM 56.1823 13.8398 50° Northeast  Level Estimated
07:31AM 56.2557 13.9981 50° Northeast  Level Estimated
07:32AM 56.3289 14.1571 50° Northeast  Level Estimated
07:33AM 56.4019 14.3167 50° Northeast  Level Estimated
07:34AM 56.4747 14.4768 51° Northeast  Level Estimated
07:35AM 56.5472 14.6376 51° Northeast  Level Estimated
07:36AM 56.6196 14.7990 51° Northeast  Level Estimated
07:37AM 56.6918 14.9611 51° Northeast  Level Estimated
07:38AM 56.7637 15.1237 51° Northeast  Level Estimated
07:39AM 56.8355 15.2870 51° Northeast  Level Estimated
07:40AM 56.9070 15.4509 51° Northeast  Level Estimated
07:41AM 56.9783 15.6154 51° Northeast  Level Estimated
07:42AM 57.0494 15.7806 52° Northeast  Level Estimated
07:43AM 57.1203 15.9464 52° Northeast  Level Estimated
07:44AM 57.1909 16.1128 52° Northeast  Level Estimated
07:45AM 57.2614 16.2799 52° Northeast  Level Estimated
07:46AM 57.3316 16.4475 52° Northeast  Level Estimated
07:47AM 57.4016 16.6159 52° Northeast  Level Estimated
07:48AM 57.4714 16.7849 52° Northeast  Level Estimated
07:49AM 57.5409 16.9545 53° Northeast  Level Estimated
07:50AM 57.6102 17.1248 53° Northeast  Level Estimated
07:51AM 57.6793 17.2957 53° Northeast  Level Estimated
07:52AM 57.7481 17.4673 53° Northeast  Level Estimated
07:53AM 57.8167 17.6395 53° Northeast  Level Estimated
07:54AM 57.8851 17.8124 53° Northeast  Level Estimated
07:55AM 57.9533 17.9860 53° Northeast  Level Estimated
07:56AM 58.0212 18.1602 54° Northeast  Level Estimated
07:57AM 58.0889 18.3350 54° Northeast  Level Estimated
07:58AM 58.1563 18.5106 54° Northeast  Level Estimated
07:59AM 58.2235 18.6868 54° Northeast  Level Estimated
08:00AM 58.2904 18.8636 54° Northeast  Level Estimated
08:01AM 58.3571 19.0411 54° Northeast  Level Estimated
08:02AM 58.4236 19.2194 54° Northeast  Level Estimated
08:03AM 58.4898 19.3982 55° Northeast  Level Estimated
08:04AM 58.5557 19.5778 55° Northeast  Level Estimated
08:05AM 58.6214 19.7580 55° Northeast  Level Estimated
08:06AM 58.6869 19.9389 55° Northeast  Level Estimated
08:07AM 58.7521 20.1205 55° Northeast  Level Estimated
08:08AM 58.8170 20.3028 55° Northeast  Level Estimated
08:09AM 58.8817 20.4857 56° Northeast  Level Estimated
08:10AM 58.9461 20.6693 56° Northeast  Level Estimated
08:11AM 59.0103 20.8536 56° Northeast  Level Estimated
08:12AM 59.0742 21.0387 56° Northeast  Level Estimated
08:13AM 59.1378 21.2243 56° Northeast  Level Estimated
08:14AM 59.2012 21.4107 56° Northeast  Level Estimated
08:15AM 59.2634 21.5952 57° Northeast  Level Estimated
08:16AM 59.3254 21.7803 57° Northeast  Level Estimated
08:17AM 59.3870 21.9660 57° Northeast  Level Estimated
08:18AM 59.4485 22.1525 57° Northeast  Level Estimated
08:19AM 59.5096 22.3396 57° Northeast  Level Estimated
08:20AM 59.5705 22.5275 57° Northeast  Level Estimated
08:21AM 59.6311 22.7160 57° Northeast  Level Estimated
08:22AM 59.6915 22.9051 58° Northeast  Level Estimated
08:23AM 59.7515 23.0950 58° Northeast  Level Estimated
08:24AM 59.8114 23.2855 58° Northeast  Level Estimated
08:25AM 59.8709 23.4767 58° Northeast  Level Estimated
08:26AM 59.9301 23.6686 58° Northeast  Level Estimated
08:27AM 59.9891 23.8612 58° Northeast  Level Estimated
08:28AM 60.0478 24.0545 59° Northeast  Level Estimated
08:29AM 60.1062 24.2485 59° Northeast  Level Estimated
08:30AM 60.1643 24.4431 59° Northeast  Level Estimated
08:31AM 60.2221 24.6385 59° Northeast  Level Estimated
08:32AM 60.2797 24.8345 59° Northeast  Level Estimated
08:33AM 60.3172 24.9633 59° Northeast  Level Estimated
08:34AM 60.3172 24.9633 North  Level Estimated
08:35AM 60.3172 24.9633 North  Level Estimated
08:36AM 60.3172 24.9633 North  Level Estimated
08:37AM 60.3172 24.9633 North  Level Estimated
08:38AM 60.3172 24.9633 North  Level Estimated
08:39AM 60.3172 24.9633 North  Level Estimated
08:40AM 60.3172 24.9633 North  Level Estimated
08:41AM 60.3172 24.9633 North  Level Estimated
08:42AM 60.3172 24.9633 North  Level Estimated
08:43AM 60.3172 24.9633 North  Level Estimated